sensor_id;sensor_type;location;lat;lon;timestamp;temperature;humidity
14000;DHT22;7075;53.574;10.054;2023-06-14T00:01:02;21.00;99.90
14000;DHT22;7075;53.574;10.054;2023-06-14T00:03:32;21.00;99.90
14000;DHT22;7075;53.574;10.054;2023-06-14T00:05:59;21.00;99.90
14000;DHT22;7075;53.574;10.054;2023-06-14T00:08:25;21.00;99.90
14000;DHT22;7075;53.574;10.054;2023-06-14T00:10:51;20.90;99.90
14000;DHT22;7075;53.574;10.054;2023-06-14T00:13:16;20.80;99.90
14000;DHT22;7075;53.574;10.054;2023-06-14T00:15:42;20.70;99.90
14000;DHT22;7075;53.574;10.054;2023-06-14T00:18:08;20.70;99.90
14000;DHT22;7075;53.574;10.054;2023-06-14T00:20:36;20.70;99.90
14000;DHT22;7075;53.574;10.054;2023-06-14T00:23:03;20.60;99.90
14000;DHT22;7075;53.574;10.054;2023-06-14T00:25:28;20.50;99.90
14000;DHT22;7075;53.574;10.054;2023-06-14T00:27:54;20.50;99.90
14000;DHT22;7075;53.574;10.054;2023-06-14T00:30:21;20.40;99.90
14000;DHT22;7075;53.574;10.054;2023-06-14T00:32:46;20.40;99.90
14000;DHT22;7075;53.574;10.054;2023-06-14T00:35:12;20.40;99.90
14000;DHT22;7075;53.574;10.054;2023-06-14T00:37:38;20.40;99.90
14000;DHT22;7075;53.574;10.054;2023-06-14T00:40:05;20.30;99.90
14000;DHT22;7075;53.574;10.054;2023-06-14T00:42:30;20.20;99.90
14000;DHT22;7075;53.574;10.054;2023-06-14T00:44:56;20.20;99.90
14000;DHT22;7075;53.574;10.054;2023-06-14T00:47:22;20.20;99.90
14000;DHT22;7075;53.574;10.054;2023-06-14T00:49:49;20.20;99.90
14000;DHT22;7075;53.574;10.054;2023-06-14T00:52:17;20.10;99.90
14000;DHT22;7075;53.574;10.054;2023-06-14T00:54:43;20.00;99.90
14000;DHT22;7075;53.574;10.054;2023-06-14T00:57:09;20.00;99.90
14000;DHT22;7075;53.574;10.054;2023-06-14T00:59:41;20.00;99.90
14000;DHT22;7075;53.574;10.054;2023-06-14T01:02:07;19.90;99.90
14000;DHT22;7075;53.574;10.054;2023-06-14T01:04:33;19.90;99.90
14000;DHT22;7075;53.574;10.054;2023-06-14T01:13:32;19.70;99.90
14000;DHT22;7075;53.574;10.054;2023-06-14T01:15:39;19.70;99.90
14000;DHT22;7075;53.574;10.054;2023-06-14T01:18:05;19.80;99.90
14000;DHT22;7075;53.574;10.054;2023-06-14T01:20:34;19.70;99.90
14000;DHT22;7075;53.574;10.054;2023-06-14T01:23:03;19.70;99.90
14000;DHT22;7075;53.574;10.054;2023-06-14T01:25:28;19.60;99.90
14000;DHT22;7075;53.574;10.054;2023-06-14T01:27:59;19.60;99.90
14000;DHT22;7075;53.574;10.054;2023-06-14T01:30:26;19.60;99.90
14000;DHT22;7075;53.574;10.054;2023-06-14T01:32:59;19.50;99.90
14000;DHT22;7075;53.574;10.054;2023-06-14T01:35:25;19.50;99.90
14000;DHT22;7075;53.574;10.054;2023-06-14T01:37:51;19.50;99.90
14000;DHT22;7075;53.574;10.054;2023-06-14T01:40:18;19.40;99.90
14000;DHT22;7075;53.574;10.054;2023-06-14T01:42:47;19.40;99.90
14000;DHT22;7075;53.574;10.054;2023-06-14T01:45:14;19.30;99.90
14000;DHT22;7075;53.574;10.054;2023-06-14T01:47:40;19.30;99.90
14000;DHT22;7075;53.574;10.054;2023-06-14T01:50:07;19.30;99.90
14000;DHT22;7075;53.574;10.054;2023-06-14T01:52:33;19.10;99.90
14000;DHT22;7075;53.574;10.054;2023-06-14T01:54:59;19.10;99.90
14000;DHT22;7075;53.574;10.054;2023-06-14T01:57:27;19.10;99.90
14000;DHT22;7075;53.574;10.054;2023-06-14T01:59:53;19.10;99.90
14000;DHT22;7075;53.574;10.054;2023-06-14T02:02:19;19.10;99.90
14000;DHT22;7075;53.574;10.054;2023-06-14T02:04:44;19.10;99.90
14000;DHT22;7075;53.574;10.054;2023-06-14T02:07:13;19.00;99.90
14000;DHT22;7075;53.574;10.054;2023-06-14T02:09:38;18.90;99.90
14000;DHT22;7075;53.574;10.054;2023-06-14T02:12:04;18.90;99.90
14000;DHT22;7075;53.574;10.054;2023-06-14T02:14:30;18.80;99.90
14000;DHT22;7075;53.574;10.054;2023-06-14T02:16:56;18.80;99.90
14000;DHT22;7075;53.574;10.054;2023-06-14T02:19:21;18.70;99.90
14000;DHT22;7075;53.574;10.054;2023-06-14T02:21:47;18.70;99.90
14000;DHT22;7075;53.574;10.054;2023-06-14T02:24:13;18.60;99.90
14000;DHT22;7075;53.574;10.054;2023-06-14T02:26:39;18.70;99.90
14000;DHT22;7075;53.574;10.054;2023-06-14T02:29:07;18.70;99.90
14000;DHT22;7075;53.574;10.054;2023-06-14T02:31:35;18.60;99.90
14000;DHT22;7075;53.574;10.054;2023-06-14T02:34:01;18.60;99.90
14000;DHT22;7075;53.574;10.054;2023-06-14T02:36:27;18.60;99.90
14000;DHT22;7075;53.574;10.054;2023-06-14T02:38:55;18.60;99.90
14000;DHT22;7075;53.574;10.054;2023-06-14T02:41:26;18.60;99.90
14000;DHT22;7075;53.574;10.054;2023-06-14T02:43:52;18.60;99.90
14000;DHT22;7075;53.574;10.054;2023-06-14T02:46:18;18.50;99.90
14000;DHT22;7075;53.574;10.054;2023-06-14T02:48:43;18.50;99.90
14000;DHT22;7075;53.574;10.054;2023-06-14T02:51:09;18.40;99.90
14000;DHT22;7075;53.574;10.054;2023-06-14T02:53:35;18.50;99.90
14000;DHT22;7075;53.574;10.054;2023-06-14T02:56:05;18.50;99.90
14000;DHT22;7075;53.574;10.054;2023-06-14T02:58:30;18.40;99.90
14000;DHT22;7075;53.574;10.054;2023-06-14T03:00:57;18.30;99.90
14000;DHT22;7075;53.574;10.054;2023-06-14T03:03:23;18.30;99.90
14000;DHT22;7075;53.574;10.054;2023-06-14T03:05:50;18.30;99.90
14000;DHT22;7075;53.574;10.054;2023-06-14T03:08:16;18.30;99.90
14000;DHT22;7075;53.574;10.054;2023-06-14T03:10:45;18.30;99.90
14000;DHT22;7075;53.574;10.054;2023-06-14T03:13:11;18.30;99.90
14000;DHT22;7075;53.574;10.054;2023-06-14T03:15:37;18.30;99.90
14000;DHT22;7075;53.574;10.054;2023-06-14T03:18:04;18.20;99.90
14000;DHT22;7075;53.574;10.054;2023-06-14T03:20:29;18.20;99.90
14000;DHT22;7075;53.574;10.054;2023-06-14T03:22:59;18.10;99.90
14000;DHT22;7075;53.574;10.054;2023-06-14T03:25:25;18.10;99.90
14000;DHT22;7075;53.574;10.054;2023-06-14T03:27:51;18.00;99.90
14000;DHT22;7075;53.574;10.054;2023-06-14T03:30:17;18.00;99.90
14000;DHT22;7075;53.574;10.054;2023-06-14T03:32:42;18.00;99.90
14000;DHT22;7075;53.574;10.054;2023-06-14T03:35:08;18.00;99.90
14000;DHT22;7075;53.574;10.054;2023-06-14T03:37:34;18.00;99.90
14000;DHT22;7075;53.574;10.054;2023-06-14T03:40:00;18.00;99.90
14000;DHT22;7075;53.574;10.054;2023-06-14T03:42:26;18.00;99.90
14000;DHT22;7075;53.574;10.054;2023-06-14T03:44:51;18.00;99.90
14000;DHT22;7075;53.574;10.054;2023-06-14T03:47:17;18.00;99.90
14000;DHT22;7075;53.574;10.054;2023-06-14T03:49:42;18.00;99.90
14000;DHT22;7075;53.574;10.054;2023-06-14T03:52:08;17.90;99.90
14000;DHT22;7075;53.574;10.054;2023-06-14T03:54:34;17.90;99.90
14000;DHT22;7075;53.574;10.054;2023-06-14T03:56:59;17.90;99.90
14000;DHT22;7075;53.574;10.054;2023-06-14T03:59:25;17.90;99.90
14000;DHT22;7075;53.574;10.054;2023-06-14T04:01:51;17.90;99.90
14000;DHT22;7075;53.574;10.054;2023-06-14T04:04:17;17.90;99.90
14000;DHT22;7075;53.574;10.054;2023-06-14T04:06:46;17.90;99.90
14000;DHT22;7075;53.574;10.054;2023-06-14T04:09:13;17.90;99.90
14000;DHT22;7075;53.574;10.054;2023-06-14T04:11:39;17.90;99.90
14000;DHT22;7075;53.574;10.054;2023-06-14T04:14:05;17.90;99.90
14000;DHT22;7075;53.574;10.054;2023-06-14T04:16:31;17.90;99.90
14000;DHT22;7075;53.574;10.054;2023-06-14T04:18:58;17.90;99.90
14000;DHT22;7075;53.574;10.054;2023-06-14T04:21:24;17.90;99.90
14000;DHT22;7075;53.574;10.054;2023-06-14T04:23:51;18.00;99.90
14000;DHT22;7075;53.574;10.054;2023-06-14T04:26:18;17.90;99.90
14000;DHT22;7075;53.574;10.054;2023-06-14T04:28:45;17.90;99.90
14000;DHT22;7075;53.574;10.054;2023-06-14T04:31:12;17.90;99.90
14000;DHT22;7075;53.574;10.054;2023-06-14T04:33:38;18.00;99.90
14000;DHT22;7075;53.574;10.054;2023-06-14T04:36:12;17.90;99.90
14000;DHT22;7075;53.574;10.054;2023-06-14T04:38:38;17.90;99.90
14000;DHT22;7075;53.574;10.054;2023-06-14T04:41:04;18.00;99.90
14000;DHT22;7075;53.574;10.054;2023-06-14T04:43:31;18.00;99.90
14000;DHT22;7075;53.574;10.054;2023-06-14T04:45:57;18.00;99.90
14000;DHT22;7075;53.574;10.054;2023-06-14T04:48:22;18.00;99.90
14000;DHT22;7075;53.574;10.054;2023-06-14T04:50:48;18.00;99.90
14000;DHT22;7075;53.574;10.054;2023-06-14T04:53:18;18.00;99.90
14000;DHT22;7075;53.574;10.054;2023-06-14T04:55:47;18.00;99.90
14000;DHT22;7075;53.574;10.054;2023-06-14T04:58:12;17.90;99.90
14000;DHT22;7075;53.574;10.054;2023-06-14T05:00:38;18.00;99.90
14000;DHT22;7075;53.574;10.054;2023-06-14T05:03:04;18.00;99.90
14000;DHT22;7075;53.574;10.054;2023-06-14T05:05:43;18.10;99.90
14000;DHT22;7075;53.574;10.054;2023-06-14T05:08:09;18.10;99.90
14000;DHT22;7075;53.574;10.054;2023-06-14T05:10:34;18.10;99.90
14000;DHT22;7075;53.574;10.054;2023-06-14T05:13:01;18.10;99.90
14000;DHT22;7075;53.574;10.054;2023-06-14T05:15:27;18.10;99.90
14000;DHT22;7075;53.574;10.054;2023-06-14T05:17:54;18.10;99.90
14000;DHT22;7075;53.574;10.054;2023-06-14T05:20:24;18.10;99.90
14000;DHT22;7075;53.574;10.054;2023-06-14T05:22:54;18.10;99.90
14000;DHT22;7075;53.574;10.054;2023-06-14T05:25:20;18.20;99.90
14000;DHT22;7075;53.574;10.054;2023-06-14T05:27:46;18.20;99.90
14000;DHT22;7075;53.574;10.054;2023-06-14T05:30:13;18.20;99.90
14000;DHT22;7075;53.574;10.054;2023-06-14T05:32:38;18.20;99.90
14000;DHT22;7075;53.574;10.054;2023-06-14T05:35:05;18.20;99.90
14000;DHT22;7075;53.574;10.054;2023-06-14T05:37:34;18.20;99.90
14000;DHT22;7075;53.574;10.054;2023-06-14T05:40:00;18.30;99.90
14000;DHT22;7075;53.574;10.054;2023-06-14T05:42:25;18.30;99.90
14000;DHT22;7075;53.574;10.054;2023-06-14T05:44:54;18.30;99.90
14000;DHT22;7075;53.574;10.054;2023-06-14T05:47:27;18.30;99.90
14000;DHT22;7075;53.574;10.054;2023-06-14T05:49:53;18.30;99.90
14000;DHT22;7075;53.574;10.054;2023-06-14T05:52:20;18.30;99.90
14000;DHT22;7075;53.574;10.054;2023-06-14T05:54:46;18.30;99.90
14000;DHT22;7075;53.574;10.054;2023-06-14T05:57:11;18.30;99.90
14000;DHT22;7075;53.574;10.054;2023-06-14T05:59:37;18.40;99.90
14000;DHT22;7075;53.574;10.054;2023-06-14T06:02:03;18.40;99.90
14000;DHT22;7075;53.574;10.054;2023-06-14T06:04:29;18.40;99.90
14000;DHT22;7075;53.574;10.054;2023-06-14T06:06:54;18.40;99.90
14000;DHT22;7075;53.574;10.054;2023-06-14T06:09:20;18.50;99.90
14000;DHT22;7075;53.574;10.054;2023-06-14T06:11:46;18.50;99.90
14000;DHT22;7075;53.574;10.054;2023-06-14T06:14:14;18.50;99.90
14000;DHT22;7075;53.574;10.054;2023-06-14T06:16:40;18.50;99.90
14000;DHT22;7075;53.574;10.054;2023-06-14T06:19:09;18.50;99.90
14000;DHT22;7075;53.574;10.054;2023-06-14T06:21:37;18.60;99.90
14000;DHT22;7075;53.574;10.054;2023-06-14T06:24:05;18.60;99.90
14000;DHT22;7075;53.574;10.054;2023-06-14T06:26:31;18.60;99.90
14000;DHT22;7075;53.574;10.054;2023-06-14T06:28:57;18.60;99.90
14000;DHT22;7075;53.574;10.054;2023-06-14T06:31:24;18.60;99.90
14000;DHT22;7075;53.574;10.054;2023-06-14T06:33:50;18.60;99.90
14000;DHT22;7075;53.574;10.054;2023-06-14T06:36:15;18.60;99.90
14000;DHT22;7075;53.574;10.054;2023-06-14T06:38:41;18.60;99.90
14000;DHT22;7075;53.574;10.054;2023-06-14T06:41:07;18.60;99.90
14000;DHT22;7075;53.574;10.054;2023-06-14T06:43:32;18.60;99.90
14000;DHT22;7075;53.574;10.054;2023-06-14T06:46:00;18.70;99.90
14000;DHT22;7075;53.574;10.054;2023-06-14T06:48:26;18.70;99.90
14000;DHT22;7075;53.574;10.054;2023-06-14T06:50:51;18.70;99.90
14000;DHT22;7075;53.574;10.054;2023-06-14T06:53:17;18.80;99.90
14000;DHT22;7075;53.574;10.054;2023-06-14T06:55:44;18.80;99.90
14000;DHT22;7075;53.574;10.054;2023-06-14T06:58:09;18.80;99.90
14000;DHT22;7075;53.574;10.054;2023-06-14T07:00:37;18.80;99.90
14000;DHT22;7075;53.574;10.054;2023-06-14T07:03:06;18.80;99.90
14000;DHT22;7075;53.574;10.054;2023-06-14T07:05:32;18.80;99.90
14000;DHT22;7075;53.574;10.054;2023-06-14T07:07:57;18.90;99.90
14000;DHT22;7075;53.574;10.054;2023-06-14T07:10:23;18.90;99.90
14000;DHT22;7075;53.574;10.054;2023-06-14T07:12:50;18.90;99.90
14000;DHT22;7075;53.574;10.054;2023-06-14T07:15:16;19.00;99.90
14000;DHT22;7075;53.574;10.054;2023-06-14T07:17:41;19.00;99.90
14000;DHT22;7075;53.574;10.054;2023-06-14T07:20:08;19.00;99.90
14000;DHT22;7075;53.574;10.054;2023-06-14T07:22:43;19.00;99.90
14000;DHT22;7075;53.574;10.054;2023-06-14T07:25:12;19.10;99.90
14000;DHT22;7075;53.574;10.054;2023-06-14T07:27:42;19.10;99.90
14000;DHT22;7075;53.574;10.054;2023-06-14T07:30:08;19.10;99.90
14000;DHT22;7075;53.574;10.054;2023-06-14T07:32:34;19.10;99.90
14000;DHT22;7075;53.574;10.054;2023-06-14T07:35:00;19.20;99.90
14000;DHT22;7075;53.574;10.054;2023-06-14T07:37:26;19.20;99.90
14000;DHT22;7075;53.574;10.054;2023-06-14T07:39:51;19.30;99.90
14000;DHT22;7075;53.574;10.054;2023-06-14T07:42:17;19.30;99.90
14000;DHT22;7075;53.574;10.054;2023-06-14T07:44:42;19.30;99.90
14000;DHT22;7075;53.574;10.054;2023-06-14T07:47:09;19.30;99.90
14000;DHT22;7075;53.574;10.054;2023-06-14T07:49:35;19.40;99.90
14000;DHT22;7075;53.574;10.054;2023-06-14T07:52:02;19.40;99.90
14000;DHT22;7075;53.574;10.054;2023-06-14T07:54:28;19.40;99.90
14000;DHT22;7075;53.574;10.054;2023-06-14T07:56:56;19.50;99.90
14000;DHT22;7075;53.574;10.054;2023-06-14T07:59:22;19.50;99.90
14000;DHT22;7075;53.574;10.054;2023-06-14T08:01:50;19.50;99.90
14000;DHT22;7075;53.574;10.054;2023-06-14T08:04:15;19.60;99.90
14000;DHT22;7075;53.574;10.054;2023-06-14T08:06:47;19.60;99.90
14000;DHT22;7075;53.574;10.054;2023-06-14T08:09:13;19.60;99.90
14000;DHT22;7075;53.574;10.054;2023-06-14T08:11:39;19.70;99.90
14000;DHT22;7075;53.574;10.054;2023-06-14T08:14:06;19.70;99.90
14000;DHT22;7075;53.574;10.054;2023-06-14T08:16:31;19.70;99.90
14000;DHT22;7075;53.574;10.054;2023-06-14T08:18:58;19.70;99.90
14000;DHT22;7075;53.574;10.054;2023-06-14T08:21:24;19.80;99.90
14000;DHT22;7075;53.574;10.054;2023-06-14T08:23:55;19.80;99.90
14000;DHT22;7075;53.574;10.054;2023-06-14T08:26:23;19.80;99.90
14000;DHT22;7075;53.574;10.054;2023-06-14T08:28:50;19.90;99.90
14000;DHT22;7075;53.574;10.054;2023-06-14T08:31:17;19.90;99.90
14000;DHT22;7075;53.574;10.054;2023-06-14T08:33:45;20.00;99.90
14000;DHT22;7075;53.574;10.054;2023-06-14T08:36:15;20.00;99.90
14000;DHT22;7075;53.574;10.054;2023-06-14T08:38:42;20.00;99.90
14000;DHT22;7075;53.574;10.054;2023-06-14T08:41:11;20.10;99.90
14000;DHT22;7075;53.574;10.054;2023-06-14T08:43:38;20.10;99.90
14000;DHT22;7075;53.574;10.054;2023-06-14T08:46:06;20.10;99.90
14000;DHT22;7075;53.574;10.054;2023-06-14T08:48:36;20.20;99.90
14000;DHT22;7075;53.574;10.054;2023-06-14T08:51:04;20.20;99.90
14000;DHT22;7075;53.574;10.054;2023-06-14T08:53:32;20.30;99.90
14000;DHT22;7075;53.574;10.054;2023-06-14T08:56:00;20.30;99.90
14000;DHT22;7075;53.574;10.054;2023-06-14T08:58:31;20.30;99.90
14000;DHT22;7075;53.574;10.054;2023-06-14T09:01:04;20.40;99.90
14000;DHT22;7075;53.574;10.054;2023-06-14T09:03:30;20.40;99.90
14000;DHT22;7075;53.574;10.054;2023-06-14T09:05:59;20.40;99.90
14000;DHT22;7075;53.574;10.054;2023-06-14T09:08:27;20.40;99.90
14000;DHT22;7075;53.574;10.054;2023-06-14T09:11:02;20.50;99.90
14000;DHT22;7075;53.574;10.054;2023-06-14T09:13:28;20.50;99.90
14000;DHT22;7075;53.574;10.054;2023-06-14T09:15:54;20.60;99.90
14000;DHT22;7075;53.574;10.054;2023-06-14T09:18:20;20.60;99.90
14000;DHT22;7075;53.574;10.054;2023-06-14T09:20:45;20.60;99.90
14000;DHT22;7075;53.574;10.054;2023-06-14T09:23:13;20.70;99.90
14000;DHT22;7075;53.574;10.054;2023-06-14T09:25:45;20.70;99.90
14000;DHT22;7075;53.574;10.054;2023-06-14T09:28:12;20.70;99.90
14000;DHT22;7075;53.574;10.054;2023-06-14T09:30:40;20.80;99.90
14000;DHT22;7075;53.574;10.054;2023-06-14T09:33:06;20.80;99.90
14000;DHT22;7075;53.574;10.054;2023-06-14T09:35:35;20.80;99.90
14000;DHT22;7075;53.574;10.054;2023-06-14T09:38:01;20.80;99.90
14000;DHT22;7075;53.574;10.054;2023-06-14T09:40:28;20.90;99.90
14000;DHT22;7075;53.574;10.054;2023-06-14T09:42:54;20.90;99.90
14000;DHT22;7075;53.574;10.054;2023-06-14T09:45:24;21.00;99.90
14000;DHT22;7075;53.574;10.054;2023-06-14T09:47:58;21.10;99.90
14000;DHT22;7075;53.574;10.054;2023-06-14T09:50:24;21.10;99.90
14000;DHT22;7075;53.574;10.054;2023-06-14T09:52:52;21.20;99.90
14000;DHT22;7075;53.574;10.054;2023-06-14T09:55:21;21.30;99.90
14000;DHT22;7075;53.574;10.054;2023-06-14T09:57:50;21.30;99.90
14000;DHT22;7075;53.574;10.054;2023-06-14T10:00:19;21.30;99.90
14000;DHT22;7075;53.574;10.054;2023-06-14T10:02:49;21.40;99.90
14000;DHT22;7075;53.574;10.054;2023-06-14T10:05:19;21.40;99.90
14000;DHT22;7075;53.574;10.054;2023-06-14T10:07:59;21.50;99.90
14000;DHT22;7075;53.574;10.054;2023-06-14T10:10:33;21.60;99.90
14000;DHT22;7075;53.574;10.054;2023-06-14T10:13:00;21.60;99.90
14000;DHT22;7075;53.574;10.054;2023-06-14T10:21:57;21.70;99.90
14000;DHT22;7075;53.574;10.054;2023-06-14T10:24:29;21.80;99.90
14000;DHT22;7075;53.574;10.054;2023-06-14T10:26:58;21.80;99.90
14000;DHT22;7075;53.574;10.054;2023-06-14T10:29:24;21.90;99.90
14000;DHT22;7075;53.574;10.054;2023-06-14T10:32:00;21.90;99.90
14000;DHT22;7075;53.574;10.054;2023-06-14T10:34:30;22.00;99.90
14000;DHT22;7075;53.574;10.054;2023-06-14T10:37:06;21.90;99.90
14000;DHT22;7075;53.574;10.054;2023-06-14T10:39:41;22.00;99.90
14000;DHT22;7075;53.574;10.054;2023-06-14T10:42:07;22.10;99.90
14000;DHT22;7075;53.574;10.054;2023-06-14T10:44:37;22.10;99.90
14000;DHT22;7075;53.574;10.054;2023-06-14T10:47:07;22.20;99.90
14000;DHT22;7075;53.574;10.054;2023-06-14T10:49:44;22.30;99.90
14000;DHT22;7075;53.574;10.054;2023-06-14T10:52:13;22.30;99.90
14000;DHT22;7075;53.574;10.054;2023-06-14T10:55:03;22.40;99.90
14000;DHT22;7075;53.574;10.054;2023-06-14T10:57:31;22.40;99.90
14000;DHT22;7075;53.574;10.054;2023-06-14T11:00:03;22.50;99.90
14000;DHT22;7075;53.574;10.054;2023-06-14T11:05:54;22.60;99.90
14000;DHT22;7075;53.574;10.054;2023-06-14T11:11:16;22.50;99.90
14000;DHT22;7075;53.574;10.054;2023-06-14T11:13:45;22.50;99.90
14000;DHT22;7075;53.574;10.054;2023-06-14T11:16:16;22.60;99.90
14000;DHT22;7075;53.574;10.054;2023-06-14T11:18:42;22.70;99.90
14000;DHT22;7075;53.574;10.054;2023-06-14T11:21:09;22.70;99.90
14000;DHT22;7075;53.574;10.054;2023-06-14T11:23:37;22.70;99.90
14000;DHT22;7075;53.574;10.054;2023-06-14T11:26:04;22.80;99.90
14000;DHT22;7075;53.574;10.054;2023-06-14T11:28:37;22.70;99.90
14000;DHT22;7075;53.574;10.054;2023-06-14T11:31:04;22.70;99.90
14000;DHT22;7075;53.574;10.054;2023-06-14T11:33:30;22.80;99.90
14000;DHT22;7075;53.574;10.054;2023-06-14T11:35:56;22.80;99.90
14000;DHT22;7075;53.574;10.054;2023-06-14T11:38:22;22.90;99.90
14000;DHT22;7075;53.574;10.054;2023-06-14T11:40:48;22.90;99.90
14000;DHT22;7075;53.574;10.054;2023-06-14T11:43:14;23.00;99.90
14000;DHT22;7075;53.574;10.054;2023-06-14T11:45:41;23.10;99.90
14000;DHT22;7075;53.574;10.054;2023-06-14T11:48:06;23.10;99.90
14000;DHT22;7075;53.574;10.054;2023-06-14T11:50:32;23.10;99.90
14000;DHT22;7075;53.574;10.054;2023-06-14T11:53:01;23.20;99.90
14000;DHT22;7075;53.574;10.054;2023-06-14T11:55:37;23.40;99.90
14000;DHT22;7075;53.574;10.054;2023-06-14T11:58:04;23.50;99.90
14000;DHT22;7075;53.574;10.054;2023-06-14T12:00:37;23.70;99.90
14000;DHT22;7075;53.574;10.054;2023-06-14T12:03:03;23.70;99.90
14000;DHT22;7075;53.574;10.054;2023-06-14T12:05:30;23.80;99.90
14000;DHT22;7075;53.574;10.054;2023-06-14T12:08:03;23.80;99.90
14000;DHT22;7075;53.574;10.054;2023-06-14T12:10:40;23.90;99.90
14000;DHT22;7075;53.574;10.054;2023-06-14T12:13:07;24.00;99.90
14000;DHT22;7075;53.574;10.054;2023-06-14T12:15:32;24.10;99.90
14000;DHT22;7075;53.574;10.054;2023-06-14T12:17:59;24.20;99.90
14000;DHT22;7075;53.574;10.054;2023-06-14T12:20:30;24.10;99.90
14000;DHT22;7075;53.574;10.054;2023-06-14T12:23:02;24.10;99.90
14000;DHT22;7075;53.574;10.054;2023-06-14T12:25:29;24.00;99.90
14000;DHT22;7075;53.574;10.054;2023-06-14T12:28:07;24.00;99.90
14000;DHT22;7075;53.574;10.054;2023-06-14T12:30:33;24.00;99.90
14000;DHT22;7075;53.574;10.054;2023-06-14T12:33:01;23.90;99.90
14000;DHT22;7075;53.574;10.054;2023-06-14T12:35:28;24.00;99.90
14000;DHT22;7075;53.574;10.054;2023-06-14T12:37:54;24.10;99.90
14000;DHT22;7075;53.574;10.054;2023-06-14T12:40:20;24.10;99.90
14000;DHT22;7075;53.574;10.054;2023-06-14T12:42:46;24.30;99.90
14000;DHT22;7075;53.574;10.054;2023-06-14T12:45:17;24.50;99.90
14000;DHT22;7075;53.574;10.054;2023-06-14T12:47:42;24.60;99.90
14000;DHT22;7075;53.574;10.054;2023-06-14T12:50:09;24.80;99.90
14000;DHT22;7075;53.574;10.054;2023-06-14T12:52:36;25.00;99.90
14000;DHT22;7075;53.574;10.054;2023-06-14T12:55:05;25.20;99.90
14000;DHT22;7075;53.574;10.054;2023-06-14T12:57:32;25.30;99.90
14000;DHT22;7075;53.574;10.054;2023-06-14T12:59:59;25.30;99.90
14000;DHT22;7075;53.574;10.054;2023-06-14T13:02:26;25.30;99.90
14000;DHT22;7075;53.574;10.054;2023-06-14T13:04:52;25.40;99.90
14000;DHT22;7075;53.574;10.054;2023-06-14T13:07:20;25.50;99.90
14000;DHT22;7075;53.574;10.054;2023-06-14T13:09:46;25.50;99.90
14000;DHT22;7075;53.574;10.054;2023-06-14T13:12:12;25.50;99.90
14000;DHT22;7075;53.574;10.054;2023-06-14T13:14:39;25.50;99.90
14000;DHT22;7075;53.574;10.054;2023-06-14T13:17:09;25.60;99.90
14000;DHT22;7075;53.574;10.054;2023-06-14T13:19:35;25.80;99.90
14000;DHT22;7075;53.574;10.054;2023-06-14T13:22:01;25.90;99.90
14000;DHT22;7075;53.574;10.054;2023-06-14T13:24:27;26.10;99.90
14000;DHT22;7075;53.574;10.054;2023-06-14T13:26:53;26.20;99.90
14000;DHT22;7075;53.574;10.054;2023-06-14T13:29:19;26.30;99.90
14000;DHT22;7075;53.574;10.054;2023-06-14T13:31:44;26.40;99.90
14000;DHT22;7075;53.574;10.054;2023-06-14T13:34:10;26.60;99.60
14000;DHT22;7075;53.574;10.054;2023-06-14T13:36:37;26.70;98.80
14000;DHT22;7075;53.574;10.054;2023-06-14T13:39:03;26.80;98.40
14000;DHT22;7075;53.574;10.054;2023-06-14T13:41:29;27.00;99.10
14000;DHT22;7075;53.574;10.054;2023-06-14T13:43:58;27.00;98.20
14000;DHT22;7075;53.574;10.054;2023-06-14T13:46:24;27.20;97.60
14000;DHT22;7075;53.574;10.054;2023-06-14T13:48:50;27.10;97.20
14000;DHT22;7075;53.574;10.054;2023-06-14T13:51:17;26.90;96.70
14000;DHT22;7075;53.574;10.054;2023-06-14T13:53:49;26.90;97.30
14000;DHT22;7075;53.574;10.054;2023-06-14T13:56:16;27.00;97.70
14000;DHT22;7075;53.574;10.054;2023-06-14T13:58:42;27.20;97.90
14000;DHT22;7075;53.574;10.054;2023-06-14T14:01:09;27.50;96.80
14000;DHT22;7075;53.574;10.054;2023-06-14T14:03:36;27.60;96.20
14000;DHT22;7075;53.574;10.054;2023-06-14T14:06:02;27.90;95.70
14000;DHT22;7075;53.574;10.054;2023-06-14T14:08:30;28.00;95.10
14000;DHT22;7075;53.574;10.054;2023-06-14T14:10:58;28.10;94.90
14000;DHT22;7075;53.574;10.054;2023-06-14T14:13:24;28.00;94.70
14000;DHT22;7075;53.574;10.054;2023-06-14T14:15:51;27.80;93.90
14000;DHT22;7075;53.574;10.054;2023-06-14T14:18:18;27.60;93.90
14000;DHT22;7075;53.574;10.054;2023-06-14T14:20:47;27.40;94.50
14000;DHT22;7075;53.574;10.054;2023-06-14T14:23:14;27.50;94.40
14000;DHT22;7075;53.574;10.054;2023-06-14T14:25:40;27.70;94.20
14000;DHT22;7075;53.574;10.054;2023-06-14T14:28:06;28.00;94.40
14000;DHT22;7075;53.574;10.054;2023-06-14T14:30:32;28.20;93.90
14000;DHT22;7075;53.574;10.054;2023-06-14T14:32:59;28.40;93.00
14000;DHT22;7075;53.574;10.054;2023-06-14T14:35:25;28.50;91.80
14000;DHT22;7075;53.574;10.054;2023-06-14T14:37:57;28.80;92.00
14000;DHT22;7075;53.574;10.054;2023-06-14T14:40:24;28.90;90.70
14000;DHT22;7075;53.574;10.054;2023-06-14T14:42:50;29.00;90.40
14000;DHT22;7075;53.574;10.054;2023-06-14T14:45:16;29.10;88.60
14000;DHT22;7075;53.574;10.054;2023-06-14T14:47:42;29.20;88.70
14000;DHT22;7075;53.574;10.054;2023-06-14T14:50:07;29.30;88.20
14000;DHT22;7075;53.574;10.054;2023-06-14T14:52:35;29.30;86.10
14000;DHT22;7075;53.574;10.054;2023-06-14T14:55:00;29.50;86.20
14000;DHT22;7075;53.574;10.054;2023-06-14T14:57:26;29.60;84.40
14000;DHT22;7075;53.574;10.054;2023-06-14T14:59:52;29.50;83.30
14000;DHT22;7075;53.574;10.054;2023-06-14T15:02:18;29.60;82.90
14000;DHT22;7075;53.574;10.054;2023-06-14T15:04:44;29.70;82.20
14000;DHT22;7075;53.574;10.054;2023-06-14T15:07:10;29.70;80.90
14000;DHT22;7075;53.574;10.054;2023-06-14T15:09:35;29.70;79.70
14000;DHT22;7075;53.574;10.054;2023-06-14T15:12:01;29.90;78.00
14000;DHT22;7075;53.574;10.054;2023-06-14T15:14:28;30.10;78.20
14000;DHT22;7075;53.574;10.054;2023-06-14T15:16:53;30.10;76.40
14000;DHT22;7075;53.574;10.054;2023-06-14T15:19:19;30.20;76.30
14000;DHT22;7075;53.574;10.054;2023-06-14T15:21:45;30.30;76.30
14000;DHT22;7075;53.574;10.054;2023-06-14T15:24:10;30.50;76.10
14000;DHT22;7075;53.574;10.054;2023-06-14T15:26:36;30.40;73.50
14000;DHT22;7075;53.574;10.054;2023-06-14T15:29:01;30.50;74.00
14000;DHT22;7075;53.574;10.054;2023-06-14T15:31:27;30.40;72.70
14000;DHT22;7075;53.574;10.054;2023-06-14T15:33:54;30.50;70.80
14000;DHT22;7075;53.574;10.054;2023-06-14T15:36:20;30.50;70.30
14000;DHT22;7075;53.574;10.054;2023-06-14T15:38:47;30.60;70.10
14000;DHT22;7075;53.574;10.054;2023-06-14T15:41:13;30.70;69.80
14000;DHT22;7075;53.574;10.054;2023-06-14T15:43:38;30.80;69.10
14000;DHT22;7075;53.574;10.054;2023-06-14T15:46:04;30.90;68.90
14000;DHT22;7075;53.574;10.054;2023-06-14T15:48:29;30.90;67.50